createdAt,value
2022-10-05T00:00:36.888Z,3.85
2022-10-05T00:03:12.826Z,4.43
2022-10-05T00:05:57.754Z,3.70
2022-10-05T00:08:34.360Z,3.90
2022-10-05T00:11:05.412Z,3.47
2022-10-05T00:13:36.273Z,3.30
2022-10-05T00:16:13.663Z,3.38
2022-10-05T00:18:43.582Z,3.50
2022-10-05T00:21:30.522Z,3.55
2022-10-05T00:24:04.214Z,2.92
2022-10-05T00:26:36.990Z,2.97
2022-10-05T00:29:20.012Z,2.88
2022-10-05T00:31:56.382Z,3.17
2022-10-05T00:34:31.457Z,3.58
2022-10-05T00:36:59.588Z,2.95
2022-10-05T00:39:32.124Z,3.20
2022-10-05T00:42:21.919Z,2.30
2022-10-05T00:45:02.941Z,2.50
2022-10-05T00:47:50.405Z,2.42
2022-10-05T00:50:29.802Z,2.10
2022-10-05T00:53:08.366Z,3.15
2022-10-05T00:55:42.923Z,2.03
2022-10-05T00:58:14.491Z,3.88
2022-10-05T01:01:08.847Z,2.10
2022-10-05T01:03:58.154Z,2.20
2022-10-05T01:06:39.195Z,2.33
2022-10-05T01:09:18.528Z,2.30
2022-10-05T01:11:49.548Z,2.13
2022-10-05T01:14:33.642Z,2.13
2022-10-05T01:17:17.040Z,1.95
2022-10-05T01:19:54.428Z,2.08
2022-10-05T01:22:27.112Z,2.28
2022-10-05T01:25:21.380Z,2.13
2022-10-05T01:27:59.213Z,2.15
2022-10-05T01:30:40.180Z,2.10
2022-10-05T01:33:11.543Z,2.42
2022-10-05T01:35:40.217Z,2.30
2022-10-05T01:38:22.073Z,2.38
2022-10-05T01:41:12.254Z,2.40
2022-10-05T01:44:00.026Z,2.85
2022-10-05T01:46:40.945Z,2.63
2022-10-05T01:49:14.225Z,2.20
2022-10-05T01:51:59.169Z,2.60
2022-10-05T01:54:33.419Z,2.45
2022-10-05T01:57:08.514Z,2.92
2022-10-05T01:59:56.596Z,3.33
2022-10-05T02:02:32.823Z,3.60
2022-10-05T02:05:08.483Z,5.18
2022-10-05T02:07:54.794Z,5.65
2022-10-05T02:11:01.408Z,6.07
2022-10-05T02:13:44.701Z,5.93
2022-10-05T02:16:26.455Z,6.68
2022-10-05T02:19:10.507Z,6.90
2022-10-05T02:21:44.796Z,6.65
2022-10-05T02:24:21.782Z,6.70
2022-10-05T02:26:51.311Z,6.55
2022-10-05T02:29:20.864Z,6.65
2022-10-05T02:31:58.047Z,8.15
2022-10-05T02:34:29.597Z,6.65
2022-10-05T02:37:26.140Z,7.45
2022-10-05T02:40:17.588Z,6.72
2022-10-05T02:42:48.627Z,6.85
2022-10-05T02:45:36.292Z,7.10
2022-10-05T02:48:24.818Z,7.32
2022-10-05T02:50:57.889Z,6.97
2022-10-05T02:53:28.519Z,8.00
2022-10-05T02:56:08.200Z,7.38
2022-10-05T02:58:44.381Z,7.53
2022-10-05T03:01:24.328Z,7.18
2022-10-05T03:04:19.948Z,8.25
2022-10-05T03:07:13.451Z,7.15
2022-10-05T03:10:01.548Z,6.55
2022-10-05T03:12:53.790Z,7.80
2022-10-05T03:15:42.103Z,7.63
2022-10-05T03:18:17.190Z,7.85
2022-10-05T03:21:00.788Z,8.43
2022-10-05T03:23:31.107Z,7.80
2022-10-05T03:26:22.603Z,7.70
2022-10-05T03:29:10.545Z,9.23
2022-10-05T03:32:00.795Z,8.43
2022-10-05T03:34:58.631Z,7.70
2022-10-05T03:37:52.621Z,7.45
2022-10-05T03:40:30.440Z,8.20
2022-10-05T03:43:17.595Z,7.50
2022-10-05T03:45:55.600Z,7.93
2022-10-05T03:48:32.521Z,7.35
2022-10-05T03:51:23.223Z,6.53
2022-10-05T03:54:01.594Z,7.55
2022-10-05T03:56:29.352Z,6.53
2022-10-05T03:59:16.005Z,6.25
2022-10-05T04:01:56.082Z,6.90
2022-10-05T04:04:31.951Z,5.82
2022-10-05T04:07:01.343Z,7.47
2022-10-05T04:09:29.803Z,6.93
2022-10-05T04:12:16.543Z,6.15
2022-10-05T04:14:51.950Z,6.07
2022-10-05T04:17:25.484Z,5.85
2022-10-05T04:19:57.335Z,6.43
2022-10-05T04:25:15.970Z,6.90
2022-10-05T04:27:51.179Z,6.20
2022-10-05T04:30:30.024Z,7.15
2022-10-05T04:33:06.883Z,6.47
2022-10-05T04:35:55.708Z,6.78
2022-10-05T04:38:23.633Z,6.30
2022-10-05T04:41:12.554Z,6.50
2022-10-05T04:43:59.156Z,5.97
2022-10-05T04:46:49.795Z,5.90
2022-10-05T04:49:38.987Z,5.70
2022-10-05T04:52:30.831Z,5.55
2022-10-05T04:55:20.664Z,4.65
2022-10-05T04:58:05.060Z,5.00
2022-10-05T05:00:49.100Z,5.40
2022-10-05T05:03:38.189Z,4.63
2022-10-05T05:09:08.597Z,4.28
2022-10-05T05:11:57.481Z,4.75
2022-10-05T05:14:43.930Z,3.70
2022-10-05T05:17:36.215Z,3.45
2022-10-05T05:20:18.428Z,3.45
2022-10-05T05:23:02.623Z,2.92
2022-10-05T05:25:41.944Z,2.40
2022-10-05T05:28:46.517Z,2.17
2022-10-05T05:31:21.028Z,2.78
2022-10-05T05:34:15.694Z,2.60
2022-10-05T05:37:15.104Z,1.92
2022-10-05T05:39:56.120Z,2.05
2022-10-05T05:42:32.723Z,1.75
2022-10-05T05:45:17.847Z,2.03
2022-10-05T05:47:52.184Z,2.38
2022-10-05T05:50:33.769Z,1.77
2022-10-05T05:53:11.344Z,1.70
2022-10-05T05:55:50.853Z,1.70
2022-10-05T06:01:32.137Z,1.65
2022-10-05T06:04:11.568Z,1.58
2022-10-05T06:06:42.073Z,2.20
2022-10-05T06:09:35.425Z,1.63
2022-10-05T06:12:15.859Z,1.55
2022-10-05T06:14:54.948Z,1.50
2022-10-05T06:17:42.137Z,1.15
2022-10-05T06:20:38.948Z,1.58
2022-10-05T06:23:20.156Z,1.50
2022-10-05T06:26:10.401Z,1.60
2022-10-05T06:28:42.430Z,1.58
2022-10-05T06:31:24.005Z,1.80
2022-10-05T06:34:02.900Z,1.60
2022-10-05T06:36:43.944Z,1.77
2022-10-05T06:39:43.190Z,1.67
2022-10-05T06:42:17.791Z,1.80
2022-10-05T06:45:25.139Z,2.53
2022-10-05T06:48:24.348Z,1.88
2022-10-05T06:54:22.344Z,2.05
2022-10-05T06:57:13.314Z,1.90
2022-10-05T06:59:53.809Z,2.05
2022-10-05T07:02:32.204Z,2.38
2022-10-05T07:05:23.198Z,2.83
2022-10-05T07:08:11.213Z,2.17
2022-10-05T07:10:49.559Z,2.05
2022-10-05T07:13:32.434Z,2.00
2022-10-05T07:19:17.033Z,2.25
2022-10-05T07:27:21.181Z,3.08
2022-10-05T07:29:50.875Z,2.80
2022-10-05T07:32:35.312Z,2.40
2022-10-05T07:35:40.522Z,2.92
2022-10-05T07:38:15.175Z,2.80
2022-10-05T07:40:50.521Z,2.50
2022-10-05T07:43:51.465Z,2.80
2022-10-05T07:46:44.144Z,2.30
2022-10-05T07:49:25.582Z,2.60
2022-10-05T07:51:57.630Z,2.67
2022-10-05T07:54:28.497Z,2.53
2022-10-05T07:57:20.512Z,1.90
2022-10-05T08:00:10.785Z,2.95
2022-10-05T08:03:00.617Z,2.33
2022-10-05T08:05:32.358Z,2.40
2022-10-05T08:08:21.120Z,2.60
2022-10-05T08:11:11.095Z,3.38
2022-10-05T08:13:44.554Z,3.50
2022-10-05T08:16:16.568Z,3.17
2022-10-05T08:18:44.809Z,2.78
2022-10-05T08:21:16.513Z,2.88
2022-10-05T08:24:06.700Z,3.03
2022-10-05T08:26:50.185Z,3.22
2022-10-05T08:29:27.971Z,2.60
2022-10-05T08:32:18.740Z,3.10
2022-10-05T08:35:04.192Z,3.50
2022-10-05T08:37:41.037Z,3.20
2022-10-05T08:40:17.570Z,2.80
2022-10-05T08:43:02.692Z,3.53
2022-10-05T08:45:49.110Z,3.03
2022-10-05T08:48:37.047Z,3.08
2022-10-05T08:51:07.542Z,3.90
2022-10-05T08:53:37.972Z,4.13
2022-10-05T08:56:28.971Z,3.95
2022-10-05T08:59:17.424Z,3.42
2022-10-05T09:01:55.556Z,4.15
2022-10-05T09:07:52.482Z,3.47
2022-10-05T09:10:26.739Z,3.33
2022-10-05T09:13:20.250Z,3.33
2022-10-05T09:16:07.628Z,3.50
2022-10-05T09:18:45.937Z,2.65
2022-10-05T09:24:08.055Z,2.88
2022-10-05T09:26:53.637Z,2.90
2022-10-05T09:32:35.959Z,2.38
2022-10-05T09:35:26.482Z,3.45
2022-10-05T09:38:08.564Z,2.15
2022-10-05T09:40:50.456Z,2.40
2022-10-05T09:43:23.812Z,2.20
2022-10-05T09:48:37.896Z,2.40
2022-10-05T09:51:18.447Z,2.38
2022-10-05T09:54:13.668Z,2.40
2022-10-05T09:57:02.877Z,2.33
2022-10-05T09:59:47.737Z,2.42
2022-10-05T10:02:17.147Z,2.50
2022-10-05T10:07:25.092Z,2.70
2022-10-05T10:10:02.303Z,2.17
2022-10-05T10:12:43.463Z,1.77
2022-10-05T10:15:10.988Z,1.95
2022-10-05T10:18:03.543Z,2.00
2022-10-05T10:20:49.865Z,1.80
2022-10-05T10:23:31.787Z,1.98
2022-10-05T10:26:13.868Z,1.95
2022-10-05T10:29:01.929Z,2.25
2022-10-05T10:31:40.610Z,2.63
2022-10-05T10:34:34.219Z,2.75
2022-10-05T10:37:13.612Z,2.60
2022-10-05T10:39:53.019Z,3.38
2022-10-05T10:42:39.481Z,3.58
2022-10-05T10:45:24.389Z,3.40
2022-10-05T10:47:55.402Z,3.80
2022-10-05T10:50:26.060Z,3.30
2022-10-05T10:53:07.925Z,3.53
2022-10-05T10:55:43.035Z,3.15
2022-10-05T10:58:18.444Z,3.33
2022-10-05T11:00:54.771Z,3.50
2022-10-05T11:03:48.778Z,4.03
2022-10-05T11:06:36.404Z,3.10
2022-10-05T11:09:13.511Z,3.63
2022-10-05T11:12:00.483Z,3.90
2022-10-05T11:14:46.764Z,4.13
2022-10-05T11:17:34.410Z,3.30
2022-10-05T11:20:05.014Z,3.50
2022-10-05T11:22:46.602Z,3.15
2022-10-05T11:25:27.359Z,3.83
2022-10-05T11:28:00.911Z,3.38
2022-10-05T11:30:35.366Z,4.20
2022-10-05T11:33:32.219Z,3.40
2022-10-05T11:36:27.716Z,3.50
2022-10-05T11:39:09.081Z,4.18
2022-10-05T11:41:36.989Z,3.75
2022-10-05T11:44:47.360Z,4.00
2022-10-05T11:47:36.839Z,4.28
2022-10-05T11:50:37.155Z,4.72
2022-10-05T11:53:23.673Z,3.97
2022-10-05T11:56:11.999Z,3.85
2022-10-05T11:58:52.538Z,3.05
2022-10-05T12:01:38.761Z,3.78
2022-10-05T12:04:13.967Z,3.97
2022-10-05T12:06:53.773Z,4.18
2022-10-05T12:10:01.621Z,4.60
2022-10-05T12:12:31.380Z,4.60
2022-10-05T12:15:24.169Z,4.32
2022-10-05T12:18:04.504Z,5.15
2022-10-05T12:20:33.350Z,4.70
2022-10-05T12:23:11.982Z,5.50
2022-10-05T12:25:49.337Z,5.93
2022-10-05T12:28:39.168Z,5.53
2022-10-05T12:31:21.780Z,4.57
2022-10-05T12:33:55.309Z,4.75
2022-10-05T12:37:02.903Z,4.65
2022-10-05T12:39:51.473Z,4.97
2022-10-05T12:42:26.728Z,4.25
2022-10-05T12:45:09.754Z,4.88
2022-10-05T12:47:55.666Z,4.60
2022-10-05T12:50:57.872Z,4.72
2022-10-05T12:53:45.128Z,4.70
2022-10-05T12:58:46.793Z,5.25
2022-10-05T13:01:21.025Z,5.05
2022-10-05T13:04:02.304Z,4.78
2022-10-05T13:06:49.169Z,5.22
2022-10-05T13:09:31.550Z,4.97
2022-10-05T13:12:03.967Z,4.82
2022-10-05T13:14:38.516Z,5.25
2022-10-05T13:17:13.545Z,4.70
2022-10-05T13:20:05.658Z,4.70
2022-10-05T13:25:59.713Z,4.45
2022-10-05T13:28:46.316Z,4.78
2022-10-05T13:31:37.876Z,3.88
2022-10-05T13:34:22.639Z,4.43
2022-10-05T13:37:02.862Z,4.53
2022-10-05T13:39:45.798Z,4.47
2022-10-05T13:42:46.346Z,4.10
2022-10-05T13:45:16.816Z,4.63
2022-10-05T13:48:01.179Z,4.10
2022-10-05T13:50:34.784Z,3.95
2022-10-05T13:53:26.037Z,5.65
2022-10-05T13:56:04.442Z,4.55
2022-10-05T13:58:42.884Z,4.00
2022-10-05T14:01:18.376Z,4.35
2022-10-05T14:04:17.057Z,3.92
2022-10-05T14:07:00.922Z,4.05
2022-10-05T14:09:35.134Z,3.30
2022-10-05T14:12:18.295Z,3.38
2022-10-05T14:15:00.873Z,3.45
2022-10-05T14:17:37.135Z,3.53
2022-10-05T14:20:20.396Z,2.67
2022-10-05T14:22:56.087Z,3.55
2022-10-05T14:25:24.792Z,2.83
2022-10-05T14:27:52.464Z,2.20
2022-10-05T14:30:23.819Z,2.10
2022-10-05T14:32:51.558Z,2.25
2022-10-05T14:35:45.431Z,2.08
2022-10-05T14:38:29.906Z,2.13
2022-10-05T14:41:16.255Z,2.17
2022-10-05T14:43:59.400Z,3.08
2022-10-05T14:46:39.628Z,2.53
2022-10-05T14:49:21.244Z,2.67
2022-10-05T14:51:54.619Z,2.90
2022-10-05T14:54:44.418Z,2.80
2022-10-05T14:57:29.494Z,2.85
2022-10-05T15:00:19.108Z,2.83
2022-10-05T15:02:54.575Z,3.63
2022-10-05T15:05:37.362Z,3.17
2022-10-05T15:08:25.764Z,3.08
2022-10-05T15:11:09.334Z,3.27
2022-10-05T15:13:55.743Z,3.05
2022-10-05T15:16:41.212Z,3.45
2022-10-05T15:19:16.183Z,3.20
2022-10-05T15:21:46.459Z,2.60
2022-10-05T15:24:24.551Z,2.92
2022-10-05T15:27:00.216Z,2.63
2022-10-05T15:29:27.804Z,2.40
2022-10-05T15:32:12.784Z,2.83
2022-10-05T15:37:42.084Z,2.38
2022-10-05T15:40:49.993Z,2.45
2022-10-05T15:43:23.505Z,2.72
2022-10-05T15:46:33.843Z,2.25
2022-10-05T15:49:09.636Z,2.13
2022-10-05T15:51:54.336Z,3.30
2022-10-05T15:55:04.206Z,4.63
2022-10-05T15:57:34.633Z,2.88
2022-10-05T16:00:12.966Z,3.42
2022-10-05T16:02:52.800Z,3.28
2022-10-05T16:06:03.427Z,3.13
2022-10-05T16:08:53.514Z,3.90
2022-10-05T16:11:35.102Z,3.00
2022-10-05T16:14:22.823Z,3.60
2022-10-05T16:17:10.576Z,5.95
2022-10-05T16:19:47.454Z,4.30
2022-10-05T16:22:21.740Z,3.80
2022-10-05T16:25:04.628Z,6.57
2022-10-05T16:27:52.851Z,3.38
2022-10-05T16:30:25.959Z,6.95
2022-10-05T16:33:13.658Z,4.07
2022-10-05T16:36:01.670Z,3.40
2022-10-05T16:38:51.537Z,7.13
2022-10-05T16:41:34.953Z,6.20
2022-10-05T16:44:13.814Z,3.00
2022-10-05T16:46:56.943Z,2.90
2022-10-05T16:49:48.632Z,2.97
2022-10-05T16:52:20.537Z,3.17
2022-10-05T16:55:03.510Z,3.58
2022-10-05T16:57:37.896Z,3.50
2022-10-05T17:00:23.965Z,3.78
2022-10-05T17:03:11.438Z,2.63
2022-10-05T17:06:00.256Z,3.42
2022-10-05T17:08:29.675Z,3.20
2022-10-05T17:11:07.894Z,3.28
2022-10-05T17:13:56.378Z,3.88
2022-10-05T17:16:46.760Z,3.40
2022-10-05T17:21:58.966Z,3.10
2022-10-05T17:24:46.422Z,3.15
2022-10-05T17:27:33.111Z,4.13
2022-10-05T17:30:23.989Z,3.38
2022-10-05T17:33:13.195Z,3.30
2022-10-05T17:36:12.500Z,4.55
2022-10-05T17:38:55.408Z,3.70
2022-10-05T17:41:33.199Z,3.13
2022-10-05T17:44:28.124Z,3.35
2022-10-05T17:47:00.728Z,3.72
2022-10-05T17:49:47.077Z,4.30
2022-10-05T17:52:48.563Z,3.25
2022-10-05T17:55:28.337Z,3.20
2022-10-05T17:58:05.821Z,4.15
2022-10-05T18:00:43.909Z,3.35
2022-10-05T18:03:36.168Z,4.07
2022-10-05T18:06:31.981Z,4.30
2022-10-05T18:09:17.651Z,4.38
2022-10-05T18:11:52.364Z,3.90
2022-10-05T18:14:26.840Z,3.90
2022-10-05T18:17:17.563Z,4.78
2022-10-05T18:20:12.567Z,4.85
2022-10-05T18:22:40.137Z,4.13
2022-10-05T18:25:27.719Z,3.63
2022-10-05T18:28:14.798Z,3.80
2022-10-05T18:30:59.348Z,4.20
2022-10-05T18:33:37.707Z,4.43
2022-10-05T18:36:26.252Z,4.07
2022-10-05T18:39:05.884Z,4.13
2022-10-05T18:41:50.544Z,5.35
2022-10-05T18:44:47.356Z,4.50
2022-10-05T18:47:33.705Z,5.30
2022-10-05T18:50:14.198Z,4.60
2022-10-05T18:52:52.125Z,5.90
2022-10-05T18:55:44.246Z,4.75
2022-10-05T18:58:33.095Z,5.13
2022-10-05T19:01:07.111Z,4.80
2022-10-05T19:03:49.296Z,3.92
2022-10-05T19:06:35.476Z,2.20
2022-10-05T19:09:08.037Z,1.75
2022-10-05T19:14:19.628Z,1.48
2022-10-05T19:16:54.140Z,1.02
2022-10-05T19:19:33.775Z,1.25
2022-10-05T19:22:15.324Z,1.65
2022-10-05T19:24:45.304Z,3.05
2022-10-05T19:27:36.103Z,1.70
2022-10-05T19:30:25.310Z,1.30
2022-10-05T19:32:58.614Z,1.30
2022-10-05T19:35:39.728Z,1.30
2022-10-05T19:38:33.152Z,2.28
2022-10-05T19:41:18.664Z,1.30
2022-10-05T19:44:05.574Z,1.38
2022-10-05T19:46:51.021Z,1.83
2022-10-05T19:52:50.196Z,2.25
2022-10-05T19:55:17.721Z,2.63
2022-10-05T19:57:52.626Z,2.33
2022-10-05T20:00:23.992Z,1.50
2022-10-05T20:03:32.963Z,1.50
2022-10-05T20:06:10.235Z,1.85
2022-10-05T20:08:42.413Z,1.90
2022-10-05T20:11:12.937Z,1.77
2022-10-05T20:13:44.327Z,1.50
2022-10-05T20:19:50.788Z,1.33
2022-10-05T20:22:24.149Z,2.53
2022-10-05T20:24:52.635Z,2.05
2022-10-05T20:27:41.111Z,1.15
2022-10-05T20:30:09.610Z,1.67
2022-10-05T20:32:41.731Z,0.88
2022-10-05T20:35:10.075Z,1.42
2022-10-05T20:37:39.644Z,0.50
2022-10-05T20:40:07.572Z,0.65
2022-10-05T20:42:36.530Z,0.80
2022-10-05T20:45:04.646Z,0.45
2022-10-05T20:47:34.283Z,0.80
2022-10-05T20:50:06.933Z,0.57
2022-10-05T20:52:44.266Z,0.80
2022-10-05T20:55:14.341Z,0.80
2022-10-05T20:58:01.631Z,0.65
2022-10-05T21:00:54.237Z,0.40
2022-10-05T21:03:28.896Z,1.17
2022-10-05T21:06:02.116Z,0.50
2022-10-05T21:08:32.829Z,0.70
2022-10-05T21:11:09.149Z,1.63
2022-10-05T21:13:38.708Z,1.00
2022-10-05T21:18:41.634Z,0.95
2022-10-05T21:21:11.156Z,0.50
2022-10-05T21:24:00.759Z,0.82
2022-10-05T21:26:33.962Z,1.02
2022-10-05T21:29:02.699Z,1.45
2022-10-05T21:31:32.839Z,0.90
2022-10-05T21:34:02.638Z,1.10
2022-10-05T21:36:33.847Z,1.00
2022-10-05T21:39:01.804Z,1.50
2022-10-05T21:41:53.814Z,0.90
2022-10-05T21:44:21.505Z,0.88
2022-10-05T21:46:49.302Z,2.55
2022-10-05T21:49:20.031Z,1.10
2022-10-05T21:51:48.006Z,1.10
2022-10-05T21:54:23.219Z,1.15
2022-10-05T21:56:55.362Z,0.93
2022-10-05T21:59:24.893Z,1.95
2022-10-05T22:04:25.583Z,1.65
2022-10-05T22:07:00.734Z,1.20
2022-10-05T22:09:36.781Z,1.35
2022-10-05T22:12:06.509Z,1.48
2022-10-05T22:14:34.004Z,2.80
2022-10-05T22:17:03.383Z,2.40
2022-10-05T22:19:33.254Z,1.67
2022-10-05T22:22:12.146Z,3.50
2022-10-05T22:24:39.702Z,3.03
2022-10-05T22:27:07.449Z,2.67
2022-10-05T22:29:37.917Z,2.75
2022-10-05T22:32:07.885Z,1.77
2022-10-05T22:34:38.023Z,2.00
2022-10-05T22:39:41.282Z,2.17
2022-10-05T22:42:16.097Z,2.33
2022-10-05T22:44:46.274Z,2.38
2022-10-05T22:47:18.938Z,2.20
2022-10-05T22:49:51.830Z,2.42
2022-10-05T22:52:25.481Z,2.08
2022-10-05T22:54:54.465Z,2.20
2022-10-05T22:57:40.849Z,4.00
2022-10-05T23:00:11.765Z,2.65
2022-10-05T23:02:43.029Z,4.57
2022-10-05T23:05:14.908Z,2.00
2022-10-05T23:07:46.342Z,1.73
2022-10-05T23:10:22.957Z,2.95
2022-10-05T23:13:01.196Z,1.95
2022-10-05T23:15:29.140Z,2.10
2022-10-05T23:17:57.581Z,3.28
2022-10-05T23:20:26.186Z,2.08
2022-10-05T23:22:56.361Z,2.22
2022-10-05T23:25:39.293Z,2.25
2022-10-05T23:28:11.959Z,1.80
2022-10-05T23:30:43.655Z,2.95
2022-10-05T23:33:13.564Z,2.63
2022-10-05T23:35:42.666Z,2.22
2022-10-05T23:38:12.692Z,2.33
2022-10-05T23:40:40.333Z,3.30
2022-10-05T23:43:10.400Z,2.45
2022-10-05T23:45:42.045Z,2.20
2022-10-05T23:48:13.143Z,1.92
2022-10-05T23:50:43.587Z,2.25
2022-10-05T23:53:13.893Z,2.70
2022-10-05T23:55:43.608Z,3.17
2022-10-05T23:58:11.205Z,1.90
